Time;durP1;ratioP1;P1;durP2;ratioP2;P2;SDS_P1;SDS_P2;PMS_P1;PMS_P2;Temp;Humidity;BMP_temperature;BMP_pressure;BME280_temperature;BME280_humidity;BME280_pressure;Samples;Min_cycle;Max_cycle;Signal;HPM_P1;HPM_P2
2022/10/12 00:00:39;;;;;;;;;13.80;12.00;;;;;18.69;79.08;100862.19;4629132;28;3522085;-71
2022/10/12 00:03:05;;;;;;;;;12.00;11.75;;;;;18.69;78.88;100862.19;4609561;28;1808129;-71
2022/10/12 00:05:32;;;;;;;;;10.67;10.33;;;;;18.76;78.73;100874.56;4596280;28;3520254;-71
2022/10/12 00:07:59;;;;;;;;;11.40;11.40;;;;;18.29;78.68;100793.34;4647544;28;3521086;-72
2022/10/12 00:10:24;;;;;;;;;12.25;12.00;;;;;18.66;79.24;100860.44;4629049;28;1807547;-71
2022/10/12 00:12:51;;;;;;;;;11.60;10.80;;;;;18.65;79.04;100863.06;4607076;28;3517946;-71
2022/10/12 00:15:17;;;;;;;;;12.75;12.00;;;;;18.63;79.38;100860.41;4627682;28;1816516;-72
2022/10/12 00:17:43;;;;;;;;;13.00;13.00;;;;;18.64;79.31;100867.50;4630654;28;1808098;-71
2022/10/12 00:20:10;;;;;;;;;13.67;12.00;;;;;18.64;79.47;100872.78;4624421;28;3519040;-71
2022/10/12 00:22:37;;;;;;;;;12.67;11.00;;;;;18.62;79.40;100871.00;4632256;28;3529455;-71
2022/10/12 00:25:03;;;;;;;;;12.50;11.50;;;;;18.58;79.57;100863.94;4622735;28;2481540;-71
2022/10/12 00:27:30;;;;;;;;;11.33;10.00;;;;;18.54;79.20;100862.16;4614717;28;2794014;-74
2022/10/12 00:29:56;;;;;;;;;13.00;12.00;;;;;18.51;79.63;100865.69;4638740;28;2805459;-71
2022/10/12 00:32:22;;;;;;;;;13.00;11.67;;;;;18.47;80.05;100866.56;4632113;28;3510714;-71
2022/10/12 00:34:49;;;;;;;;;12.00;10.67;;;;;18.45;80.08;100868.31;4642020;28;2797210;-73
2022/10/12 00:37:15;;;;;;;;;10.00;10.00;;;;;18.57;79.35;100878.06;4621037;28;2772206;-72
2022/10/12 00:39:43;;;;;;;;;10.00;8.83;;;;;18.56;79.52;100877.19;4644164;28;2769041;-71
2022/10/12 00:42:12;;;;;;;;;8.50;7.00;;;;;18.48;79.38;100858.63;4622952;28;2741928;-73
2022/10/12 00:44:44;;;;;;;;;7.60;7.40;;;;;18.60;78.89;100878.03;4631560;28;2744423;-71
2022/10/12 00:47:17;;;;;;;;;10.00;7.80;;;;;18.59;78.30;100876.28;4632588;28;2758587;-74
2022/10/12 00:49:47;;;;;;;;;11.00;9.00;;;;;18.54;78.32;100864.81;4612768;28;2764855;-71
2022/10/12 00:52:19;;;;;;;;;9.00;6.60;;;;;18.58;78.55;100874.50;4615002;28;2756563;-72
2022/10/12 00:54:48;;;;;;;;;10.00;9.00;;;;;18.45;78.77;100861.25;4576664;28;2772214;-74
2022/10/12 00:57:17;;;;;;;;;8.80;8.00;;;;;18.43;78.75;100856.84;4630887;28;2747509;-74
2022/10/12 00:59:59;;;;;;;;;9.80;7.80;;;;;18.47;78.53;100869.19;4631743;28;2761758;-74
2022/10/12 01:02:28;;;;;;;;;11.00;8.67;;;;;18.50;78.66;100874.47;4612241;28;2774231;-74
2022/10/12 01:04:55;;;;;;;;;10.00;8.50;;;;;18.50;78.44;100863.91;4616463;28;2761758;-73
2022/10/12 01:07:22;;;;;;;;;7.40;7.00;;;;;18.48;78.58;100869.22;4633067;28;2739817;-74
2022/10/12 01:09:50;;;;;;;;;8.80;8.60;;;;;18.39;78.91;100852.44;4628864;28;3475223;-71
2022/10/12 01:12:17;;;;;;;;;11.67;11.33;;;;;18.37;79.52;100854.19;4630710;28;2787875;-73
2022/10/12 01:14:43;;;;;;;;;10.50;7.50;;;;;18.40;79.49;100865.66;4615600;28;2759700;-72
2022/10/12 01:17:27;;;;;;;;;10.00;10.00;;;;;18.36;78.90;100849.75;4597331;28;2767390;-71
2022/10/12 01:20:27;;;;;;;;;12.67;11.33;;;;;18.47;79.18;100871.84;4612730;28;2806594;-71
2022/10/12 01:23:11;;;;;;;;;11.67;11.00;;;;;17.96;79.01;100787.06;4615988;28;2800408;-73
2022/10/12 01:25:57;;;;;;;;;9.33;9.33;;;;;18.40;78.75;100864.75;4636371;28;2777776;-73
2022/10/12 01:28:39;;;;;;;;;11.00;8.40;;;;;18.41;78.87;100872.72;4658710;28;2766619;-72
2022/10/12 01:31:34;;;;;;;;;10.00;9.00;;;;;18.37;79.03;100864.78;4597427;28;2761785;-74
2022/10/12 01:34:25;;;;;;;;;11.00;10.00;;;;;18.28;79.21;100855.03;4608795;28;2782661;-72
2022/10/12 01:37:14;;;;;;;;;9.40;8.40;;;;;18.31;79.69;100859.47;4643438;28;2754415;-72
2022/10/12 01:39:53;;;;;;;;;9.60;7.00;;;;;18.23;79.57;100844.44;4637310;28;2756484;-73
2022/10/12 01:42:33;;;;;;;;;10.00;9.00;;;;;18.20;79.72;100839.13;4615361;28;2764844;-73
2022/10/12 01:45:09;;;;;;;;;9.80;7.00;;;;;18.27;79.78;100853.28;4635921;28;2752325;-71
2022/10/12 01:47:37;;;;;;;;;10.00;7.00;;;;;18.31;79.60;100844.47;4622245;28;2759680;-71
2022/10/12 01:50:09;;;;;;;;;7.60;7.40;;;;;18.27;79.21;100838.28;4635646;28;2738077;-72
2022/10/12 01:53:12;;;;;;;;;9.50;7.00;;;;;18.31;79.43;100855.06;4600645;28;2748241;-71
2022/10/12 01:56:00;;;;;;;;;9.00;7.00;;;;;18.31;79.64;100849.75;4636445;28;2756518;-73
2022/10/12 01:59:10;;;;;;;;;10.40;8.40;;;;;18.33;79.34;100857.72;4621042;28;2761750;-71
2022/10/12 02:02:10;;;;;;;;;9.40;7.00;;;;;18.38;79.44;100855.94;4636545;28;2759674;-73
2022/10/12 02:05:01;;;;;;;;;10.00;8.60;;;;;18.29;79.62;100841.81;4617197;28;2774253;-71
2022/10/12 02:07:41;;;;;;;;;8.60;6.00;;;;;18.37;79.76;100854.19;4635589;28;2734692;-72
2022/10/12 02:10:16;;;;;;;;;11.00;8.60;;;;;18.30;79.80;100834.75;4634963;28;2752360;-71
2022/10/12 02:12:46;;;;;;;;;7.00;7.00;;;;;18.38;79.64;100850.66;4636301;28;2726308;-71
2022/10/12 02:15:16;;;;;;;;;8.40;7.00;;;;;18.40;79.38;100844.50;4627927;28;2739947;-73
2022/10/12 02:17:46;;;;;;;;;9.20;8.00;;;;;18.33;79.43;100839.19;4633475;28;2756526;-73
2022/10/12 02:20:17;;;;;;;;;9.33;8.67;;;;;18.25;79.16;100823.31;4613728;28;2770402;-73
2022/10/12 02:22:47;;;;;;;;;10.00;9.50;;;;;18.41;79.25;100848.91;4658320;28;2775665;-72
2022/10/12 02:25:19;;;;;;;;;8.60;7.60;;;;;18.32;78.92;100826.84;4635348;28;2738867;-72
2022/10/12 02:27:58;;;;;;;;;8.40;6.80;;;;;18.42;79.28;100848.03;4634299;28;2727369;-73
2022/10/12 02:30:24;;;;;;;;;11.00;9.00;;;;;18.28;79.23;100824.19;4613065;28;2763893;-73
2022/10/12 02:33:05;;;;;;;;;12.60;8.60;;;;;18.22;79.46;100810.06;4634108;28;2768060;-72
2022/10/12 02:35:40;;;;;;;;;9.33;8.67;;;;;18.42;79.47;100841.84;4600012;28;2762848;-73
2022/10/12 02:38:26;;;;;;;;;8.60;7.20;;;;;18.40;79.46;100836.56;4657638;28;2739852;-73
2022/10/12 02:41:01;;;;;;;;;8.00;8.00;;;;;18.42;79.22;100844.50;4633711;28;2732569;-72
2022/10/12 02:43:46;;;;;;;;;10.20;8.00;;;;;18.32;79.31;100826.84;4617263;28;2758617;-70
2022/10/12 02:46:17;;;;;;;;;10.00;10.00;;;;;18.29;79.47;100823.31;4614005;28;2776341;-71
2022/10/12 02:48:46;;;;;;;;;8.40;8.20;;;;;18.40;79.46;100840.97;4656512;28;2739860;-71
2022/10/12 02:51:14;;;;;;;;;9.80;8.40;;;;;18.23;80.02;100806.56;4628624;28;2763871;-71
2022/10/12 02:53:44;;;;;;;;;8.40;7.00;;;;;18.27;80.07;100813.59;4608461;28;2738221;-71
2022/10/12 02:56:13;;;;;;;;;7.33;6.00;;;;;18.35;80.00;100829.50;4612716;28;2736755;-72
2022/10/12 02:58:45;;;;;;;;;10.00;8.60;;;;;18.24;80.20;100817.13;4644701;28;2776321;-71
2022/10/12 03:01:15;;;;;;;;;10.40;8.40;;;;;18.33;80.21;100828.63;4614252;28;2763818;-71
2022/10/12 03:03:42;;;;;;;;;8.67;8.67;;;;;18.26;80.07;100815.38;4605981;28;2735667;-70
2022/10/12 03:06:09;;;;;;;;;9.33;9.33;;;;;18.27;80.22;100814.47;4636197;28;2774610;-73
2022/10/12 03:08:35;;;;;;;;;11.50;10.00;;;;;18.21;80.44;100795.97;4647198;28;2783648;-71
2022/10/12 03:11:08;;;;;;;;;9.00;7.60;;;;;18.38;80.04;100827.75;4640288;28;2751343;-70
2022/10/12 03:13:35;;;;;;;;;9.40;8.00;;;;;18.35;80.10;100816.28;4634937;28;2757581;-71
2022/10/12 03:16:05;;;;;;;;;6.67;6.67;;;;;18.40;80.81;100827.72;4642812;28;2744059;-70
2022/10/12 03:18:32;;;;;;;;;10.00;8.33;;;;;18.32;80.30;100816.25;4593431;28;2763806;-71
2022/10/12 03:21:00;;;;;;;;;10.20;10.00;;;;;18.32;80.73;100822.41;4652215;28;2782941;-70
2022/10/12 03:23:28;;;;;;;;;8.20;7.80;;;;;18.37;80.55;100825.97;4636031;28;2741975;-70
2022/10/12 03:25:55;;;;;;;;;7.60;7.20;;;;;18.31;80.55;100814.50;4631889;28;2748264;-72
2022/10/12 03:28:21;;;;;;;;;11.00;11.00;;;;;18.32;80.42;100803.91;4622202;28;2787784;-72
2022/10/12 03:30:47;;;;;;;;;10.00;9.50;;;;;18.39;80.35;100818.06;4622921;28;2770104;-72
2022/10/12 03:33:13;;;;;;;;;10.00;10.00;;;;;18.37;80.79;100818.03;4623902;28;2791973;-71
2022/10/12 03:35:44;;;;;;;;;9.00;6.50;;;;;18.27;80.71;100817.13;4644357;28;2750242;-73
2022/10/12 03:38:12;;;;;;;;;10.33;8.33;;;;;18.28;80.52;100812.72;4609764;28;2761695;-73
2022/10/12 03:40:40;;;;;;;;;7.00;7.00;;;;;18.29;80.39;100807.44;4653816;28;2744059;-74
2022/10/12 03:43:05;;;;;;;;;10.50;9.50;;;;;18.26;80.76;100814.47;4616656;28;2770068;-71
2022/10/12 03:45:34;;;;;;;;;9.40;8.40;;;;;18.26;81.00;100815.38;4621727;28;2759389;-70
2022/10/12 03:48:03;;;;;;;;;11.00;8.80;;;;;18.32;80.66;100822.41;4634169;28;2757878;-72
2022/10/12 03:50:28;;;;;;;;;8.50;7.00;;;;;18.34;80.62;100820.66;4622623;28;2746063;-71
2022/10/12 03:52:56;;;;;;;;;10.33;9.50;;;;;18.33;80.61;100821.56;4643096;28;2782900;-70
2022/10/12 03:55:24;;;;;;;;;9.17;8.33;;;;;18.28;80.72;100823.28;4626160;28;2740230;-71
2022/10/12 03:57:52;;;;;;;;;9.00;8.80;;;;;18.29;80.50;100820.66;4643611;28;2754483;-71
2022/10/12 04:00:20;;;;;;;;;10.33;8.33;;;;;18.35;79.78;100830.38;4644673;28;2762761;-71
2022/10/12 04:02:48;;;;;;;;;7.60;7.20;;;;;18.32;79.69;100819.78;4631863;28;2735690;-71
2022/10/12 04:05:16;;;;;;;;;10.20;6.80;;;;;18.34;80.06;100823.31;4624729;28;2759656;-72
2022/10/12 04:07:42;;;;;;;;;10.00;9.67;;;;;18.29;80.56;100819.78;4615157;28;2776337;-73
2022/10/12 04:10:08;;;;;;;;;11.33;10.00;;;;;18.24;80.88;100816.22;4634069;28;2790944;-71
2022/10/12 04:12:34;;;;;;;;;9.00;8.00;;;;;18.31;80.39;100828.59;4644160;28;2749318;-71
2022/10/12 04:15:00;;;;;;;;;9.00;7.00;;;;;18.27;80.73;100813.59;4621296;28;2741936;-71
2022/10/12 04:17:28;;;;;;;;;9.33;7.33;;;;;18.34;80.92;100822.44;4643278;28;2762089;-73
2022/10/12 04:19:56;;;;;;;;;7.33;7.17;;;;;18.35;80.62;100818.91;4644587;28;2739821;-71
2022/10/12 04:22:24;;;;;;;;;9.83;9.00;;;;;18.40;80.60;100833.03;4642131;28;2780571;-72
2022/10/12 04:24:51;;;;;;;;;9.00;7.60;;;;;18.32;80.53;100821.53;4644270;28;2754483;-73
2022/10/12 04:27:19;;;;;;;;;11.83;9.67;;;;;18.28;80.45;100815.34;4642772;28;2787767;-73
2022/10/12 04:29:47;;;;;;;;;10.40;8.80;;;;;18.32;80.29;100817.13;4642339;28;2770052;-72
2022/10/12 04:32:13;;;;;;;;;11.50;10.00;;;;;18.36;80.32;100826.84;4610086;28;2780519;-71
2022/10/12 04:34:41;;;;;;;;;9.17;8.67;;;;;18.39;80.44;100832.16;4653630;28;2758590;-73
2022/10/12 04:37:08;;;;;;;;;8.83;8.17;;;;;18.23;80.52;100806.56;4639470;28;2742004;-72
2022/10/12 04:39:36;;;;;;;;;9.00;8.60;;;;;18.37;80.38;100827.75;4638650;28;2747166;-72
2022/10/12 04:42:05;;;;;;;;;7.80;7.80;;;;;18.33;80.21;100821.56;4638890;28;2741959;-73
2022/10/12 04:44:33;;;;;;;;;9.60;8.40;;;;;18.33;80.41;100818.91;4632440;28;2763773;-73
2022/10/12 04:47:02;;;;;;;;;10.33;9.67;;;;;18.33;80.45;100816.25;4639793;28;2782552;-73
2022/10/12 04:49:28;;;;;;;;;8.33;6.67;;;;;18.33;80.37;100824.19;4632283;28;2752380;-73
2022/10/12 04:51:56;;;;;;;;;10.50;10.50;;;;;18.31;80.32;100817.16;4655507;28;2797165;-73
2022/10/12 04:54:23;;;;;;;;;10.00;10.00;;;;;18.20;80.46;100795.94;4632217;28;2780473;-73
2022/10/12 04:56:51;;;;;;;;;7.80;7.20;;;;;18.27;80.66;100811.84;4656256;28;2739869;-73
2022/10/12 04:59:18;;;;;;;;;8.17;7.83;;;;;18.35;80.63;100819.78;4642530;28;2741944;-72
2022/10/12 05:01:45;;;;;;;;;9.00;8.00;;;;;18.37;80.79;100830.38;4626977;28;3475285;-72
2022/10/12 05:04:13;;;;;;;;;9.40;7.60;;;;;18.31;80.55;100819.78;4649933;28;2757537;-71
2022/10/12 05:06:41;;;;;;;;;9.00;8.00;;;;;18.35;80.22;100832.16;4644692;28;2756498;-71
2022/10/12 05:09:08;;;;;;;;;11.67;8.33;;;;;18.21;80.80;100803.91;4643548;28;2752336;-71
2022/10/12 05:11:34;;;;;;;;;11.00;9.00;;;;;18.27;80.14;100821.53;4622627;28;2756570;-73
2022/10/12 05:14:02;;;;;;;;;8.33;8.17;;;;;18.38;80.38;100833.03;4640574;28;2737782;-73
2022/10/12 05:16:30;;;;;;;;;8.00;7.00;;;;;18.36;80.27;100842.69;4638719;28;2741944;-73
2022/10/12 05:18:58;;;;;;;;;8.33;7.33;;;;;18.29;80.01;100831.25;4640523;28;2746468;-73
2022/10/12 05:21:26;;;;;;;;;10.00;10.00;;;;;18.30;80.31;100840.03;4638183;28;2787776;-72
2022/10/12 05:23:52;;;;;;;;;10.33;9.00;;;;;18.28;80.15;100836.50;4634695;28;2776340;-73
2022/10/12 05:26:19;;;;;;;;;12.00;10.67;;;;;18.31;80.34;100849.75;4632988;28;3525265;-73
2022/10/12 05:28:45;;;;;;;;;8.00;8.00;;;;;18.22;80.43;100834.75;4634875;28;2742298;-73
2022/10/12 05:31:11;;;;;;;;;37.50;33.50;;;;;18.18;80.24;100825.03;4624150;28;1889401;-73
2022/10/12 05:33:37;;;;;;;;;35.50;30.50;;;;;18.26;80.16;100835.63;4625128;28;2850325;-73
2022/10/12 05:36:04;;;;;;;;;13.00;10.67;;;;;18.32;80.39;100850.63;4610316;28;2783665;-71
2022/10/12 05:38:31;;;;;;;;;9.33;9.33;;;;;18.31;80.10;100849.75;4630298;28;3491627;-73
2022/10/12 05:40:59;;;;;;;;;11.00;11.00;;;;;18.28;80.38;100857.66;4644282;28;2805546;-73
2022/10/12 05:43:27;;;;;;;;;10.00;9.67;;;;;18.26;80.68;100854.13;4614112;28;2749216;-72
2022/10/12 05:45:53;;;;;;;;;9.67;9.67;;;;;17.82;80.15;100778.16;4632358;28;2779493;-73
2022/10/12 05:48:19;;;;;;;;;11.00;9.00;;;;;18.25;80.06;100845.34;4640031;28;2773257;-71
2022/10/12 05:50:45;;;;;;;;;9.00;8.60;;;;;18.31;80.39;100860.34;4627983;28;3466891;-73
2022/10/12 05:53:12;;;;;;;;;11.33;10.33;;;;;18.34;80.28;100867.41;4641827;28;2792988;-71
2022/10/12 05:55:39;;;;;;;;;9.33;9.00;;;;;18.30;80.18;100853.28;4613876;28;2776774;-73
2022/10/12 05:58:05;;;;;;;;;10.00;9.50;;;;;18.28;80.11;100857.66;4649886;28;2762800;-72
2022/10/12 06:00:33;;;;;;;;;11.00;9.67;;;;;18.21;80.05;100843.56;4639831;28;2794162;-72
2022/10/12 06:02:59;;;;;;;;;10.67;9.33;;;;;18.29;80.28;100856.81;4640757;27;2774270;-73
2022/10/12 06:05:27;;;;;;;;;7.80;7.80;;;;;18.20;80.00;100840.91;4639010;28;2739856;-73
2022/10/12 06:07:54;;;;;;;;;9.00;7.17;;;;;18.25;80.37;100853.25;4644460;28;2748574;-72
2022/10/12 06:10:22;;;;;;;;;8.33;8.33;;;;;18.22;80.66;100852.38;4623227;28;2746111;-71
2022/10/12 06:12:50;;;;;;;;;8.33;7.17;;;;;18.24;80.74;100859.44;4644658;28;2735690;-73
2022/10/12 06:15:17;;;;;;;;;9.60;9.60;;;;;18.25;80.96;100881.47;4639807;28;3499209;-73
2022/10/12 06:17:45;;;;;;;;;11.29;10.71;;;;;18.11;80.88;100851.47;4677024;28;2793993;-73
2022/10/12 06:20:12;;;;;;;;;11.33;11.00;;;;;18.27;80.89;100883.25;4623826;28;3531527;-72
2022/10/12 06:22:38;;;;;;;;;11.00;10.00;;;;;18.26;80.59;100872.66;4641604;28;2788321;-71
2022/10/12 06:25:05;;;;;;;;;11.67;10.00;;;;;17.87;80.40;100792.34;4641979;28;3519013;-70
2022/10/12 06:27:31;;;;;;;;;18.50;18.00;;;;;18.26;80.63;100864.72;4635347;28;2481528;-71
2022/10/12 06:29:57;;;;;;;;;8.50;8.00;;;;;18.24;80.93;100869.13;4622816;28;2742388;-72
2022/10/12 06:32:25;;;;;;;;;10.33;8.50;;;;;18.19;81.26;100868.22;4644886;28;2755500;-71
2022/10/12 06:34:52;;;;;;;;;9.67;8.00;;;;;18.09;81.31;100864.66;4644658;28;2760642;-73
2022/10/12 06:37:19;;;;;;;;;10.00;10.00;;;;;18.14;81.52;100885.81;4619412;28;2787792;-72
2022/10/12 06:39:45;;;;;;;;;6.50;6.50;;;;;18.15;81.77;100884.97;4636633;28;2739845;-73
2022/10/12 06:42:12;;;;;;;;;9.83;8.33;;;;;17.99;81.65;100873.44;4641611;28;2747161;-73
2022/10/12 06:44:40;;;;;;;;;10.17;8.50;;;;;18.00;81.79;100870.78;4641260;28;2760709;-74
2022/10/12 06:47:07;;;;;;;;;11.40;10.00;;;;;18.02;81.76;100876.97;4611592;28;3513746;-74
2022/10/12 06:49:35;;;;;;;;;11.33;10.17;;;;;18.02;81.74;100879.59;4666022;28;2780485;-73
2022/10/12 06:52:02;;;;;;;;;11.40;10.80;;;;;18.14;81.53;100893.75;4639374;28;3516924;-72
2022/10/12 06:54:29;;;;;;;;;10.00;9.80;;;;;18.08;81.54;100881.41;4603551;28;3514854;-72
2022/10/12 06:56:55;;;;;;;;;15.67;12.00;;;;;18.00;81.78;100868.13;4635492;28;2791014;-72
2022/10/12 06:59:24;;;;;;;;;10.50;10.33;;;;;18.20;81.37;100891.13;4637119;28;2787896;-72
2022/10/12 07:01:50;;;;;;;;;13.00;12.67;;;;;18.21;81.13;100887.63;4614354;28;3532584;-72
2022/10/12 07:04:17;;;;;;;;;11.80;10.40;;;;;18.27;81.18;100901.75;4650719;28;3509987;-72
2022/10/12 07:06:43;;;;;;;;;14.00;11.33;;;;;18.27;80.96;100899.09;4613955;28;3527337;-73
2022/10/12 07:09:10;;;;;;;;;12.20;11.40;;;;;18.26;81.37;100896.44;4652292;28;3531488;-73
2022/10/12 07:11:37;;;;;;;;;14.00;12.00;;;;;18.37;80.83;100910.59;4623637;28;3535697;-73
2022/10/12 07:14:03;;;;;;;;;12.00;10.50;;;;;18.37;80.75;100913.25;4646651;28;2791958;-73
2022/10/12 07:16:30;;;;;;;;;11.67;10.33;;;;;18.51;80.88;100929.19;4624500;28;3515843;-70
2022/10/12 07:18:57;;;;;;;;;12.00;10.00;;;;;18.53;80.74;100921.25;4632399;28;2790995;-72
2022/10/12 07:21:23;;;;;;;;;10.60;9.20;;;;;18.56;80.50;100927.44;4635458;28;3498117;-72
2022/10/12 07:23:52;;;;;;;;;11.17;8.50;;;;;18.54;80.39;100923.00;4666928;28;2768983;-71
2022/10/12 07:26:18;;;;;;;;;12.00;11.33;;;;;18.51;80.88;100915.94;4609494;28;3529432;-73
2022/10/12 07:28:46;;;;;;;;;13.00;11.00;;;;;18.58;80.43;100927.44;4646235;28;3516207;-71
2022/10/12 07:31:12;;;;;;;;;13.00;11.00;;;;;18.56;80.66;100918.59;4624576;28;2795075;-73
2022/10/12 07:33:38;;;;;;;;;10.33;9.00;;;;;18.65;80.51;100939.81;4614987;28;2783569;-72
2022/10/12 07:36:06;;;;;;;;;11.20;7.00;;;;;18.62;80.33;100927.47;4654244;28;2757540;-73
2022/10/12 07:38:33;;;;;;;;;9.67;8.00;;;;;18.64;80.65;100938.94;4610438;28;2761743;-72
2022/10/12 07:41:03;;;;;;;;;12.50;10.67;;;;;18.62;80.19;100942.44;4655297;28;2798274;-73
2022/10/12 07:43:30;;;;;;;;;13.67;11.67;;;;;18.69;80.60;100957.47;4633749;28;3524229;-73
2022/10/12 07:45:56;;;;;;;;;9.00;8.67;;;;;18.67;80.64;100968.03;4640274;28;2758574;-73
2022/10/12 07:48:23;;;;;;;;;16.00;12.33;;;;;18.62;80.37;100953.00;4632705;28;3545085;-73
2022/10/12 07:50:49;;;;;;;;;10.33;10.00;;;;;18.46;80.34;100930.91;4645223;28;2774631;-72
2022/10/12 07:53:16;;;;;;;;;10.00;9.33;;;;;18.60;80.09;100954.78;4639361;28;2779438;-73
2022/10/12 07:55:42;;;;;;;;;15.33;13.33;;;;;18.62;80.31;100959.22;4649155;27;3538815;-73
2022/10/12 07:58:09;;;;;;;;;12.40;11.80;;;;;18.57;80.32;100954.78;4627495;28;3538190;-72
2022/10/12 08:00:37;;;;;;;;;9.20;7.60;;;;;18.64;80.21;100964.50;4641406;28;2749196;-73
2022/10/12 08:03:04;;;;;;;;;13.33;12.00;;;;;18.60;79.98;100957.41;4615402;28;2805444;-73
2022/10/12 08:05:30;;;;;;;;;13.67;12.00;;;;;18.65;79.88;100968.91;4631974;28;3527364;-73
2022/10/12 08:07:59;;;;;;;;;14.67;11.67;;;;;18.53;79.67;100953.88;4644362;28;3515887;-73
2022/10/12 08:10:25;;;;;;;;;13.00;11.67;;;;;18.49;79.97;100952.09;4638205;28;2810696;-73
2022/10/12 08:12:51;;;;;;;;;13.00;10.00;;;;;18.43;80.31;100939.72;4633929;28;3506545;-73
2022/10/12 08:15:18;;;;;;;;;12.60;11.80;;;;;18.63;79.78;100975.97;4650896;28;3536668;-72
2022/10/12 08:17:45;;;;;;;;;14.00;12.00;;;;;18.53;80.28;100953.00;4617221;28;3527356;-73
2022/10/12 08:20:11;;;;;;;;;14.00;13.75;;;;;18.68;79.48;100976.84;4630252;28;1820183;-72
2022/10/12 08:22:38;;;;;;;;;12.67;11.67;;;;;18.67;79.79;100973.31;4612984;28;3524192;-73
2022/10/12 08:25:05;;;;;;;;;17.33;13.67;;;;;18.71;79.60;100982.16;4621997;28;3549223;-73
2022/10/12 08:27:31;;;;;;;;;13.00;12.00;;;;;18.78;79.06;100991.91;4635626;28;2483649;-73
2022/10/12 08:29:57;;;;;;;;;13.50;13.50;;;;;18.76;79.14;100980.44;4618783;28;2485810;-73
2022/10/12 08:32:24;;;;;;;;;13.00;13.00;;;;;18.82;78.63;100977.84;4627780;28;3532494;-73
2022/10/12 08:34:50;;;;;;;;;16.67;13.33;;;;;18.76;78.63;100980.44;4615082;28;3541942;-72
2022/10/12 08:37:17;;;;;;;;;13.40;11.80;;;;;18.83;79.01;100992.81;4629359;28;3511732;-73
2022/10/12 08:39:44;;;;;;;;;12.67;10.33;;;;;18.80;78.16;100966.38;4618450;28;3502703;-73
2022/10/12 08:42:47;;;;;;;;;14.75;12.75;;;;;18.92;78.06;100978.75;4648666;28;1807889;-73
2022/10/12 08:45:42;;;;;;;;;12.50;10.00;;;;;19.02;78.05;100991.13;4600963;28;2788880;-73
2022/10/12 08:48:15;;;;;;;;;11.00;11.00;;;;;19.01;77.65;100983.16;4616541;28;2791945;-73
2022/10/12 08:50:58;;;;;;;;;11.00;10.50;;;;;19.00;76.96;100984.03;4597095;28;2794017;-73
2022/10/12 08:53:44;;;;;;;;;11.33;10.33;;;;;18.99;77.56;100983.16;4610867;28;3508568;-73
2022/10/12 08:56:10;;;;;;;;;13.67;12.00;;;;;19.03;77.64;100995.53;4632418;28;3512759;-74
2022/10/12 08:58:38;;;;;;;;;14.40;12.80;;;;;19.08;77.75;100990.25;4649043;28;3531451;-72
2022/10/12 09:01:35;;;;;;;;;11.00;11.00;;;;;19.22;77.35;101000.88;4615035;28;2804583;-71
2022/10/12 09:04:39;;;;;;;;;14.00;12.67;;;;;19.35;77.08;100992.03;4636575;28;2816987;-71
2022/10/12 09:07:16;;;;;;;;;11.40;10.20;;;;;19.44;76.37;100997.38;4635964;28;2776279;-72
2022/10/12 09:09:43;;;;;;;;;8.60;8.20;;;;;19.51;75.54;100995.59;4632870;28;2756490;-72
2022/10/12 09:12:17;;;;;;;;;11.80;10.00;;;;;19.54;75.09;101002.69;4631548;28;3490852;-71
2022/10/12 09:14:46;;;;;;;;;8.50;8.50;;;;;19.49;74.32;100986.75;4639838;28;2739948;-72
2022/10/12 09:17:24;;;;;;;;;9.00;8.00;;;;;19.55;74.63;101005.31;4595321;28;3462764;-72
2022/10/12 09:20:03;;;;;;;;;14.00;12.00;;;;;19.60;74.65;101003.56;4633504;28;3505448;-71
2022/10/12 09:22:32;;;;;;;;;13.67;11.67;;;;;19.63;74.37;100995.59;4615284;28;3508624;-71
2022/10/12 09:25:01;;;;;;;;;12.00;11.33;;;;;19.71;74.40;100994.72;4633329;28;2789986;-71
2022/10/12 09:27:30;;;;;;;;;12.00;11.00;;;;;19.75;74.91;100992.09;4619966;28;2778404;-71
2022/10/12 09:30:01;;;;;;;;;12.33;10.33;;;;;19.90;73.88;101001.81;4614700;28;2787114;-72
2022/10/12 09:32:51;;;;;;;;;8.00;8.00;;;;;20.02;73.61;101004.44;4640277;28;2743038;-71
2022/10/12 09:35:18;;;;;;;;;10.33;9.00;;;;;19.96;71.68;100991.19;4611111;28;2771181;-72
2022/10/12 09:37:51;;;;;;;;;15.67;11.00;;;;;19.88;72.24;100990.31;4637341;28;2791943;-72
2022/10/12 09:40:27;;;;;;;;;11.33;10.67;;;;;19.98;73.35;101004.44;4631356;28;3506505;-71
2022/10/12 09:42:54;;;;;;;;;14.00;12.00;;;;;19.92;73.36;101004.47;4621668;28;2789866;-72
2022/10/12 09:45:21;;;;;;;;;12.67;11.67;;;;;19.88;73.57;101016.84;4612541;28;3515895;-72
2022/10/12 09:48:16;;;;;;;;;9.00;8.00;;;;;19.81;74.63;101015.94;4619361;28;2749286;-72
2022/10/12 09:50:47;;;;;;;;;14.50;13.50;;;;;19.81;73.87;101015.06;4590078;28;2802378;-71
2022/10/12 09:53:42;;;;;;;;;12.50;11.00;;;;;19.75;73.32;101012.41;4619884;28;2789899;-72
2022/10/12 09:56:21;;;;;;;;;13.33;11.67;;;;;19.67;72.77;101007.94;4610369;28;3517979;-72
2022/10/12 09:58:57;;;;;;;;;11.33;9.67;;;;;19.73;73.36;101017.72;4615135;28;2777358;-73
2022/10/12 10:01:27;;;;;;;;;13.00;10.67;;;;;19.82;72.78;101019.50;4629599;28;3507597;-72
2022/10/12 10:04:30;;;;;;;;;10.20;9.00;;;;;19.90;72.52;101019.50;4656007;28;2776302;-72
2022/10/12 10:07:11;;;;;;;;;10.00;8.00;;;;;19.98;72.11;101015.94;4556914;28;2765973;-71
2022/10/12 10:09:37;;;;;;;;;11.67;9.00;;;;;20.06;71.94;101015.94;4628754;28;3499594;-71
2022/10/12 10:12:23;;;;;;;;;9.40;8.20;;;;;20.09;71.18;101007.94;4654506;28;3465931;-72
2022/10/12 10:14:51;;;;;;;;;8.67;7.67;;;;;20.21;70.78;101009.69;4605548;28;2742351;-73
2022/10/12 10:17:30;;;;;;;;;10.67;9.00;;;;;20.33;70.17;101009.66;4614195;28;3491922;-72
2022/10/12 10:19:59;;;;;;;;;10.00;9.00;;;;;20.51;70.40;101006.06;4632723;28;2770116;-72
2022/10/12 10:22:25;;;;;;;;;12.00;10.00;;;;;20.62;68.97;100984.84;4618097;28;2782968;-72
2022/10/12 10:24:55;;;;;;;;;22.67;21.67;;;;;21.06;67.76;101010.28;4616070;28;2830855;-73
2022/10/12 10:27:32;;;;;;;;;13.00;10.00;;;;;21.25;66.82;100985.34;4641273;28;2788892;-72
2022/10/12 10:30:16;;;;;;;;;10.00;9.00;;;;;21.78;65.24;101008.88;4642891;28;2756593;-72
2022/10/12 10:32:44;;;;;;;;;10.00;8.33;;;;;22.11;63.98;101007.69;4623732;28;2757565;-72
2022/10/12 10:35:10;;;;;;;;;9.67;8.67;;;;;22.41;62.70;101013.63;4636454;28;2751410;-71
2022/10/12 10:37:45;;;;;;;;;12.00;11.00;;;;;22.61;61.73;100997.41;4634441;28;3514123;-71
2022/10/12 10:40:27;;;;;;;;;11.67;11.00;;;;;22.94;62.13;101004.06;4635531;28;3510714;-71
2022/10/12 10:42:56;;;;;;;;;11.33;11.00;;;;;23.38;60.47;101001.69;4622404;28;2786757;-72
2022/10/12 10:45:30;;;;;;;;;14.00;13.00;;;;;23.42;59.39;100972.28;4632419;28;3531488;-72
2022/10/12 10:48:00;;;;;;;;;11.00;10.00;;;;;23.76;57.97;100995.72;4611584;28;3510675;-72
2022/10/12 10:50:38;;;;;;;;;11.00;9.00;;;;;23.90;58.21;100987.50;4641326;28;2771109;-72
2022/10/12 10:53:16;;;;;;;;;14.67;13.00;;;;;24.14;57.12;100987.94;4594031;28;3526312;-72
2022/10/12 10:56:04;;;;;;;;;11.33;10.33;;;;;24.20;56.91;100991.38;4640250;28;2788122;-72
2022/10/12 10:58:41;;;;;;;;;10.00;10.00;;;;;24.22;57.79;100992.22;4639998;28;2781918;-72
2022/10/12 11:01:44;;;;;;;;;8.33;8.00;;;;;24.44;57.07;100986.44;4622148;28;2746142;-72
2022/10/12 11:04:23;;;;;;;;;10.67;9.00;;;;;24.71;55.24;100987.72;4621773;28;2777399;-72
2022/10/12 11:06:56;;;;;;;;;23.33;23.00;;;;;25.06;54.78;100986.03;4638578;28;3585711;-73
2022/10/12 11:09:37;;;;;;;;;14.00;12.00;;;;;25.37;53.87;100985.34;4613061;28;2489942;-73
2022/10/12 11:12:16;;;;;;;;;10.00;9.00;;;;;25.67;54.34;100980.16;4634412;28;3491923;-73
2022/10/12 11:14:49;;;;;;;;;9.00;8.67;;;;;25.76;54.12;100983.44;4621476;28;2738855;-72
2022/10/12 11:17:21;;;;;;;;;8.67;7.33;;;;;26.09;52.84;100996.00;4642307;28;2746157;-72
2022/10/12 11:20:05;;;;;;;;;10.67;10.00;;;;;26.54;49.59;100992.94;4635241;28;2784646;-72